Time;durP1;ratioP1;P1;durP2;ratioP2;P2;SDS_P1;SDS_P2;PMS_P1;PMS_P2;Temp;Humidity;BMP_temperature;BMP_pressure;BME280_temperature;BME280_humidity;BME280_pressure;Samples;Min_cycle;Max_cycle;Signal;HPM_P1;HPM_P2
2023/06/12 00:01:25;;;;;;;11.55;4.43;;;17.90;89.50;;;;;;5032441;28;20231;-70
2023/06/12 00:04:15;;;;;;;9.68;4.50;;;17.80;89.30;;;;;;5025485;28;20225;-71
2023/06/12 00:07:04;;;;;;;7.93;3.90;;;17.60;89.00;;;;;;5028119;28;20349;-71
2023/06/12 00:09:54;;;;;;;6.72;4.32;;;17.50;88.90;;;;;;5025082;28;20236;-70
2023/06/12 00:12:43;;;;;;;11.35;4.00;;;17.40;88.50;;;;;;5030841;28;20657;-71
2023/06/12 00:15:34;;;;;;;6.32;3.70;;;17.30;87.90;;;;;;5019562;28;20256;-70
2023/06/12 00:18:23;;;;;;;6.18;3.85;;;17.40;86.80;;;;;;5021168;28;20225;-70
2023/06/12 00:21:12;;;;;;;6.63;3.90;;;17.40;85.90;;;;;;5035885;28;20221;-72
2023/06/12 00:24:04;;;;;;;7.60;3.78;;;17.40;84.50;;;;;;5022234;28;20222;-73
2023/06/12 00:26:54;;;;;;;5.80;3.55;;;17.40;85.70;;;;;;5036101;28;20891;-71
2023/06/12 00:29:43;;;;;;;4.70;3.58;;;17.30;84.40;;;;;;5017735;28;20282;-70
2023/06/12 00:32:32;;;;;;;5.45;2.80;;;17.40;85.40;;;;;;5043246;28;20228;-72
2023/06/12 00:35:21;;;;;;;7.38;3.40;;;17.30;83.50;;;;;;5016371;28;20323;-71
2023/06/12 00:38:13;;;;;;;7.85;3.40;;;17.50;84.90;;;;;;5019602;28;20236;-71
2023/06/12 00:41:02;;;;;;;7.45;3.60;;;17.40;85.10;;;;;;5035419;28;20236;-71
2023/06/12 00:43:53;;;;;;;5.85;3.30;;;17.40;85.00;;;;;;5026096;28;20351;-71
2023/06/12 00:46:42;;;;;;;6.47;3.15;;;17.20;81.30;;;;;;5027766;28;20683;-72
2023/06/12 00:49:31;;;;;;;6.22;3.13;;;17.10;81.10;;;;;;5040661;28;20225;-72
2023/06/12 00:52:24;;;;;;;4.78;2.88;;;17.30;81.30;;;;;;5044194;28;20741;-71
2023/06/12 00:55:14;;;;;;;7.90;3.60;;;17.10;80.20;;;;;;5020507;28;20737;-71
2023/06/12 00:58:03;;;;;;;4.88;3.20;;;17.10;81.10;;;;;;5015796;28;20744;-71
2023/06/12 01:00:56;;;;;;;4.78;3.00;;;17.10;82.50;;;;;;5037633;28;20252;-72
2023/06/12 01:03:44;;;;;;;4.78;2.95;;;17.10;80.20;;;;;;5016188;28;20230;-72
2023/06/12 01:06:43;;;;;;;3.85;3.03;;;17.00;80.20;;;;;;5021092;28;20259;-72
2023/06/12 01:09:40;;;;;;;4.95;3.15;;;16.90;78.80;;;;;;5012272;28;20460;-72
2023/06/12 01:12:30;;;;;;;6.10;2.90;;;16.80;80.30;;;;;;5017858;28;20221;-72
2023/06/12 01:15:19;;;;;;;5.70;2.90;;;17.00;82.50;;;;;;5020732;28;20684;-71
2023/06/12 01:18:09;;;;;;;5.88;2.90;;;17.00;80.30;;;;;;5012348;28;20586;-70
2023/06/12 01:21:01;;;;;;;7.15;3.00;;;17.00;78.70;;;;;;5022309;28;20299;-71
2023/06/12 01:24:12;;;;;;;6.57;2.92;;;16.80;79.10;;;;;;5022602;28;20234;-71
2023/06/12 01:27:24;;;;;;;6.82;2.90;;;16.70;79.40;;;;;;5023507;28;20221;-71
2023/06/12 01:30:33;;;;;;;6.15;3.15;;;16.70;79.10;;;;;;5037597;28;20225;-71
2023/06/12 01:33:32;;;;;;;8.32;3.03;;;16.50;81.80;;;;;;5023407;28;20641;-72
2023/06/12 01:36:27;;;;;;;6.57;2.80;;;16.60;81.70;;;;;;5011525;28;20226;-72
2023/06/12 01:39:18;;;;;;;7.22;3.05;;;16.40;81.30;;;;;;5031597;28;20229;-71
2023/06/12 01:42:08;;;;;;;6.20;3.72;;;16.40;81.30;;;;;;5034522;28;20213;-71
2023/06/12 01:44:58;;;;;;;6.20;3.03;;;16.40;82.00;;;;;;5017231;28;20236;-74
2023/06/12 01:47:47;;;;;;;4.38;3.28;;;16.30;81.00;;;;;;5043852;28;20636;-71
2023/06/12 01:50:40;;;;;;;8.77;3.35;;;16.10;80.60;;;;;;5015806;28;20744;-71
2023/06/12 01:53:29;;;;;;;10.43;3.15;;;16.20;81.20;;;;;;5029738;28;20217;-72
2023/06/12 01:56:24;;;;;;;5.18;3.38;;;16.20;82.00;;;;;;5058619;28;20220;-71
2023/06/12 01:59:14;;;;;;;8.00;3.42;;;16.00;81.30;;;;;;5038125;28;20224;-71
2023/06/12 02:02:06;;;;;;;5.47;3.03;;;16.00;82.60;;;;;;5015257;28;20221;-72
2023/06/12 02:04:55;;;;;;;4.78;2.90;;;15.90;82.30;;;;;;5029287;28;20224;-72
2023/06/12 02:07:45;;;;;;;5.35;3.20;;;15.80;82.60;;;;;;5038317;28;20255;-72
2023/06/12 02:10:37;;;;;;;5.20;2.92;;;16.00;82.20;;;;;;5028864;28;20220;-72
2023/06/12 02:13:26;;;;;;;4.85;2.95;;;16.10;83.10;;;;;;5030162;28;20225;-71
2023/06/12 02:16:21;;;;;;;6.57;2.85;;;16.30;83.30;;;;;;5025528;28;20228;-72
2023/06/12 02:19:11;;;;;;;4.00;2.80;;;16.10;82.20;;;;;;4998693;28;20245;-71
2023/06/12 02:21:59;;;;;;;3.13;2.60;;;16.00;81.10;;;;;;5013227;28;20225;-72
2023/06/12 02:24:51;;;;;;;4.30;2.97;;;16.00;82.20;;;;;;5022460;28;20247;-72
2023/06/12 02:27:40;;;;;;;5.75;2.90;;;16.10;82.10;;;;;;5016683;28;20918;-69
2023/06/12 02:30:29;;;;;;;4.88;2.70;;;16.00;80.60;;;;;;5018005;28;20233;-71
2023/06/12 02:33:19;;;;;;;6.45;3.08;;;16.00;81.20;;;;;;5025035;28;20226;-71
2023/06/12 02:36:08;;;;;;;7.50;3.08;;;16.00;80.70;;;;;;5023437;28;20249;-72
2023/06/12 02:38:57;;;;;;;6.35;3.05;;;16.00;81.40;;;;;;5022468;28;20288;-72
2023/06/12 02:41:48;;;;;;;8.70;2.95;;;15.90;80.90;;;;;;5011081;28;20764;-71
2023/06/12 02:44:37;;;;;;;5.57;3.30;;;16.00;81.30;;;;;;5021852;28;20241;-72
2023/06/12 02:47:27;;;;;;;7.50;3.33;;;15.70;80.60;;;;;;5016901;28;20258;-71
2023/06/12 02:50:17;;;;;;;6.20;3.00;;;15.60;81.20;;;;;;5018664;28;20743;-71
2023/06/12 02:53:11;;;;;;;4.15;3.08;;;15.50;81.00;;;;;;5013120;28;20234;-72
2023/06/12 02:55:59;;;;;;;6.30;3.45;;;15.50;82.10;;;;;;5015460;28;20253;-71
2023/06/12 02:58:50;;;;;;;6.35;2.92;;;15.30;82.00;;;;;;5016993;28;20602;-71
2023/06/12 03:01:43;;;;;;;4.90;3.25;;;15.00;82.30;;;;;;5016931;28;20275;-72
2023/06/12 03:04:40;;;;;;;6.00;3.30;;;15.10;83.50;;;;;;5022211;28;20244;-72
2023/06/12 03:07:29;;;;;;;5.85;2.90;;;15.10;83.10;;;;;;5030208;28;20301;-72
2023/06/12 03:10:18;;;;;;;7.18;3.35;;;15.20;83.90;;;;;;5020902;28;20667;-71
2023/06/12 03:13:08;;;;;;;5.80;2.88;;;15.30;83.20;;;;;;5000409;28;20701;-72
2023/06/12 03:15:58;;;;;;;8.95;3.17;;;15.10;83.30;;;;;;5022545;28;20236;-72
2023/06/12 03:18:48;;;;;;;5.05;2.88;;;15.30;83.20;;;;;;5034701;28;20237;-72
2023/06/12 03:21:37;;;;;;;10.05;3.00;;;15.40;83.60;;;;;;5002643;28;20320;-71
2023/06/12 03:24:26;;;;;;;5.05;3.28;;;15.40;83.50;;;;;;5018350;28;20371;-71
2023/06/12 03:27:15;;;;;;;5.93;3.00;;;15.40;82.60;;;;;;5029144;28;20213;-72
2023/06/12 03:30:05;;;;;;;4.15;2.80;;;15.30;82.90;;;;;;5036132;28;20314;-71
2023/06/12 03:32:57;;;;;;;8.80;2.97;;;15.60;83.50;;;;;;5023305;28;20244;-71
2023/06/12 03:35:46;;;;;;;5.60;3.15;;;15.70;83.40;;;;;;5022881;28;20309;-71
2023/06/12 03:38:36;;;;;;;4.35;2.90;;;15.60;82.40;;;;;;5001415;28;20455;-72
2023/06/12 03:41:26;;;;;;;5.82;2.95;;;15.50;83.70;;;;;;5020003;28;20687;-73
2023/06/12 03:44:15;;;;;;;5.70;2.95;;;15.40;83.00;;;;;;5017898;28;20228;-71
2023/06/12 03:47:05;;;;;;;5.13;3.17;;;15.40;83.00;;;;;;5014308;28;20249;-72
2023/06/12 03:49:55;;;;;;;4.68;3.05;;;15.60;83.60;;;;;;5022115;28;20229;-71
2023/06/12 03:52:46;;;;;;;7.13;3.15;;;15.60;82.80;;;;;;5027913;28;20306;-72
2023/06/12 03:55:38;;;;;;;7.72;3.28;;;15.30;82.60;;;;;;5029270;28;20297;-72
2023/06/12 03:58:28;;;;;;;4.60;3.20;;;15.50;83.70;;;;;;5028896;28;20216;-72
2023/06/12 04:01:16;;;;;;;5.45;3.17;;;15.60;82.50;;;;;;5035406;28;20240;-69
2023/06/12 04:04:06;;;;;;;9.65;3.08;;;15.90;83.60;;;;;;5005328;28;20724;-71
2023/06/12 04:06:59;;;;;;;6.32;3.00;;;15.70;83.00;;;;;;5019784;28;20308;-72
2023/06/12 04:09:48;;;;;;;8.57;2.92;;;15.80;83.40;;;;;;5014314;28;20226;-72
2023/06/12 04:12:37;;;;;;;5.82;3.20;;;15.80;83.60;;;;;;5009630;28;20227;-72
2023/06/12 04:15:28;;;;;;;6.25;2.80;;;15.70;82.10;;;;;;5045045;28;20300;-71
2023/06/12 04:18:17;;;;;;;9.13;3.20;;;15.80;84.20;;;;;;5039294;28;20225;-72
2023/06/12 04:21:06;;;;;;;6.60;3.25;;;16.20;82.30;;;;;;5023290;28;20236;-71
2023/06/12 04:23:58;;;;;;;5.40;3.22;;;16.00;82.60;;;;;;5007005;28;20222;-73
2023/06/12 04:26:49;;;;;;;6.80;3.40;;;16.10;82.90;;;;;;5013958;28;20227;-71
2023/06/12 04:29:40;;;;;;;6.43;3.08;;;16.10;82.40;;;;;;4993370;28;20229;-72
2023/06/12 04:32:29;;;;;;;8.38;3.13;;;16.30;84.70;;;;;;5022128;28;20389;-73
2023/06/12 04:35:19;;;;;;;7.95;3.38;;;16.50;84.00;;;;;;5038273;28;20706;-71
2023/06/12 04:38:08;;;;;;;10.15;3.40;;;16.50;83.40;;;;;;5025261;28;20912;-71
2023/06/12 04:41:00;;;;;;;4.97;2.90;;;16.20;83.30;;;;;;5015148;28;20277;-71
2023/06/12 04:43:49;;;;;;;9.57;3.17;;;16.20;84.50;;;;;;5038790;28;20743;-71
2023/06/12 04:46:38;;;;;;;8.27;3.47;;;16.70;84.10;;;;;;5005032;28;20228;-71
2023/06/12 04:49:29;;;;;;;8.40;3.22;;;16.60;83.40;;;;;;5006348;28;20214;-73
2023/06/12 04:52:19;;;;;;;7.90;3.45;;;16.70;84.50;;;;;;5023090;28;20228;-71
2023/06/12 04:55:09;;;;;;;4.95;3.03;;;16.90;83.30;;;;;;5006953;28;20594;-71
2023/06/12 04:58:00;;;;;;;6.78;3.40;;;16.50;83.30;;;;;;5021182;28;20276;-71
2023/06/12 05:00:50;;;;;;;13.30;3.95;;;16.80;85.10;;;;;;5021312;28;20364;-73
2023/06/12 05:03:40;;;;;;;8.70;3.30;;;16.70;84.50;;;;;;5023524;28;20225;-71
2023/06/12 05:06:30;;;;;;;9.38;3.20;;;16.80;85.90;;;;;;5021089;28;20321;-72
2023/06/12 05:09:19;;;;;;;6.65;3.38;;;17.20;85.60;;;;;;5029323;28;20267;-71
2023/06/12 05:12:09;;;;;;;7.82;3.28;;;17.40;84.60;;;;;;5037982;28;20224;-72
2023/06/12 05:15:00;;;;;;;11.13;3.60;;;17.70;84.50;;;;;;5007503;28;20846;-70
2023/06/12 05:17:50;;;;;;;9.23;3.63;;;17.50;83.50;;;;;;5017610;28;20278;-71
2023/06/12 05:20:38;;;;;;;8.45;3.47;;;17.20;84.50;;;;;;5000742;28;20305;-70
2023/06/12 05:23:28;;;;;;;6.57;3.28;;;17.70;85.30;;;;;;5003922;28;20234;-72
2023/06/12 05:26:17;;;;;;;8.27;3.40;;;17.70;84.40;;;;;;5037675;28;20231;-73
2023/06/12 05:29:06;;;;;;;8.52;3.42;;;18.00;83.60;;;;;;5045480;28;20217;-73
2023/06/12 05:31:56;;;;;;;10.02;3.42;;;18.00;83.90;;;;;;5018872;28;20253;-73
2023/06/12 05:34:45;;;;;;;10.95;3.70;;;18.00;83.60;;;;;;5033698;28;20222;-74
2023/06/12 05:37:34;;;;;;;11.60;3.70;;;18.40;83.60;;;;;;5022230;28;20222;-71
2023/06/12 05:40:23;;;;;;;4.68;2.92;;;18.50;83.00;;;;;;5014590;28;20381;-72
2023/06/12 05:43:12;;;;;;;9.57;3.20;;;18.50;84.10;;;;;;5016688;28;20230;-71
2023/06/12 05:46:01;;;;;;;12.32;3.50;;;18.50;83.80;;;;;;5012803;28;20241;-71
2023/06/12 05:48:51;;;;;;;9.88;3.30;;;18.80;85.60;;;;;;5016328;28;20229;-72
2023/06/12 05:51:40;;;;;;;7.50;3.17;;;18.70;83.20;;;;;;5008367;28;20658;-72
2023/06/12 05:54:32;;;;;;;7.72;3.15;;;18.50;83.70;;;;;;5014799;28;20341;-69
2023/06/12 05:57:21;;;;;;;7.75;3.42;;;18.70;83.90;;;;;;5016628;28;20625;-72
2023/06/12 06:00:13;;;;;;;9.80;3.47;;;18.60;82.60;;;;;;5021792;28;20916;-72
2023/06/12 06:03:04;;;;;;;7.78;3.47;;;18.60;83.20;;;;;;5027172;28;20226;-72
2023/06/12 06:05:56;;;;;;;12.23;3.15;;;18.50;83.60;;;;;;5007970;28;20257;-72
2023/06/12 06:08:46;;;;;;;10.35;3.53;;;18.50;84.40;;;;;;4991316;28;20225;-72
2023/06/12 06:11:35;;;;;;;7.03;3.20;;;19.00;84.10;;;;;;5018648;28;20301;-70
2023/06/12 06:14:24;;;;;;;8.82;3.30;;;18.90;82.00;;;;;;5037108;28;20233;-71
2023/06/12 06:17:15;;;;;;;11.90;3.28;;;19.20;82.00;;;;;;5034872;28;20231;-71
2023/06/12 06:20:05;;;;;;;10.00;3.30;;;19.60;81.40;;;;;;5009028;28;20767;-73
2023/06/12 06:22:55;;;;;;;8.73;2.80;;;19.50;81.40;;;;;;5007487;28;20710;-72
2023/06/12 06:25:45;;;;;;;5.00;3.00;;;19.60;82.00;;;;;;5009718;28;20218;-72
2023/06/12 06:28:33;;;;;;;10.82;3.10;;;19.70;81.10;;;;;;5026303;28;20933;-72
2023/06/12 06:31:25;;;;;;;7.70;2.80;;;19.70;81.10;;;;;;5019235;28;20737;-72
2023/06/12 06:34:16;;;;;;;6.95;2.63;;;19.80;80.70;;;;;;5014092;28;20225;-71
2023/06/12 06:37:06;;;;;;;8.27;3.15;;;21.60;78.70;;;;;;5033777;28;20235;-72
2023/06/12 06:39:56;;;;;;;7.68;2.60;;;21.70;74.60;;;;;;5020594;28;20229;-71
2023/06/12 06:42:45;;;;;;;7.97;2.50;;;21.60;73.60;;;;;;5030337;28;20218;-72
2023/06/12 06:45:40;;;;;;;8.10;2.42;;;21.20;73.10;;;;;;5021138;28;20221;-71
2023/06/12 06:48:30;;;;;;;8.15;2.22;;;21.10;73.00;;;;;;5017909;28;20276;-72
2023/06/12 06:51:19;;;;;;;7.63;2.67;;;21.00;73.60;;;;;;5022745;28;20221;-72
2023/06/12 06:54:08;;;;;;;4.40;2.30;;;20.80;71.30;;;;;;5021959;28;20232;-73
2023/06/12 06:57:01;;;;;;;6.80;2.13;;;20.60;73.40;;;;;;5020694;28;20236;-71
2023/06/12 06:59:50;;;;;;;3.42;2.17;;;20.30;71.30;;;;;;5003789;28;20362;-73
2023/06/12 07:02:40;;;;;;;6.72;2.25;;;20.80;72.30;;;;;;5012198;28;20715;-73
2023/06/12 07:05:32;;;;;;;5.53;2.00;;;21.20;71.00;;;;;;5021844;28;20252;-73
2023/06/12 07:08:21;;;;;;;5.10;1.92;;;21.20;66.90;;;;;;5021116;28;20233;-71
2023/06/12 07:11:10;;;;;;;4.65;1.95;;;21.60;64.50;;;;;;5000725;28;20340;-72
2023/06/12 07:14:03;;;;;;;4.43;1.80;;;23.20;60.10;;;;;;5031627;28;20225;-73
2023/06/12 07:16:52;;;;;;;6.47;2.00;;;23.00;60.00;;;;;;5023712;28;20788;-72
2023/06/12 07:19:41;;;;;;;5.68;1.70;;;22.70;59.30;;;;;;5037026;28;20225;-72
2023/06/12 07:22:31;;;;;;;6.15;2.20;;;22.50;59.50;;;;;;5007343;28;20292;-72
2023/06/12 07:25:20;;;;;;;4.70;1.90;;;22.90;62.30;;;;;;5018610;28;20228;-73
2023/06/12 07:28:09;;;;;;;4.10;2.03;;;22.80;60.20;;;;;;5014623;28;20226;-71
2023/06/12 07:31:00;;;;;;;8.02;1.88;;;22.30;58.90;;;;;;5011316;28;20385;-71
2023/06/12 07:33:50;;;;;;;8.60;1.90;;;22.10;58.80;;;;;;5038003;28;20299;-72
2023/06/12 07:36:39;;;;;;;5.65;1.80;;;23.20;58.10;;;;;;5030177;28;20608;-72
2023/06/12 07:39:28;;;;;;;4.90;2.30;;;23.30;58.70;;;;;;5025139;28;20221;-72
2023/06/12 07:42:18;;;;;;;14.32;2.58;;;23.40;55.50;;;;;;4996096;28;20353;-71
2023/06/12 07:45:08;;;;;;;8.68;1.90;;;24.20;54.30;;;;;;5032769;28;20273;-71
2023/06/12 07:48:00;;;;;;;7.00;1.70;;;23.70;52.60;;;;;;5024650;28;20832;-72
2023/06/12 07:50:54;;;;;;;7.43;2.15;;;24.00;54.00;;;;;;5008098;28;20221;-71
2023/06/12 07:53:43;;;;;;;7.40;1.85;;;23.80;53.10;;;;;;5008429;28;20280;-72
2023/06/12 07:56:37;;;;;;;6.05;1.65;;;24.70;53.90;;;;;;5021807;28;20222;-73
2023/06/12 07:59:26;;;;;;;4.30;1.70;;;24.80;53.10;;;;;;5028960;28;20327;-72
2023/06/12 08:02:19;;;;;;;7.07;1.88;;;25.10;51.20;;;;;;5036153;28;20232;-72
2023/06/12 08:05:11;;;;;;;9.18;1.90;;;25.30;50.70;;;;;;5041358;28;20228;-72
2023/06/12 08:08:01;;;;;;;13.15;3.15;;;25.20;50.30;;;;;;5020061;28;20652;-73
2023/06/12 08:10:50;;;;;;;3.88;1.40;;;25.20;49.90;;;;;;5027788;28;20229;-72
2023/06/12 08:13:39;;;;;;;5.22;1.73;;;25.10;48.10;;;;;;5042772;28;20367;-72
2023/06/12 08:16:30;;;;;;;4.35;1.52;;;25.20;47.40;;;;;;5028483;28;20224;-72
2023/06/12 08:19:18;;;;;;;6.97;2.22;;;25.00;47.80;;;;;;5039655;28;20732;-70
2023/06/12 08:22:09;;;;;;;6.80;1.73;;;25.00;48.90;;;;;;5043218;28;20221;-72
2023/06/12 08:24:57;;;;;;;3.65;1.60;;;24.90;48.60;;;;;;5026562;28;20225;-73
2023/06/12 08:27:46;;;;;;;2.53;1.58;;;24.80;49.00;;;;;;5028607;28;20272;-73
2023/06/12 08:30:35;;;;;;;5.25;1.92;;;24.80;48.40;;;;;;5044289;28;20229;-74
2023/06/12 08:33:25;;;;;;;2.80;1.70;;;24.90;50.30;;;;;;5031838;28;20275;-72
2023/06/12 08:36:14;;;;;;;4.13;1.80;;;24.90;50.20;;;;;;5017186;28;20213;-72
2023/06/12 08:39:04;;;;;;;2.47;1.73;;;25.50;49.90;;;;;;5027880;28;20224;-72
2023/06/12 08:41:59;;;;;;;3.63;1.70;;;26.40;48.50;;;;;;5026069;28;20225;-72
2023/06/12 08:44:48;;;;;;;5.05;2.05;;;25.80;46.70;;;;;;5048204;28;20283;-72
2023/06/12 08:47:38;;;;;;;8.43;1.98;;;26.10;49.10;;;;;;5048620;28;20231;-71
2023/06/12 08:50:27;;;;;;;9.13;2.10;;;26.90;47.50;;;;;;5048555;28;20270;-71
2023/06/12 08:53:17;;;;;;;5.85;1.92;;;26.40;48.50;;;;;;5038644;28;20300;-72
2023/06/12 08:56:10;;;;;;;4.25;1.75;;;26.00;47.60;;;;;;5032157;28;20240;-73
2023/06/12 08:59:01;;;;;;;5.63;1.88;;;25.30;47.40;;;;;;5047604;28;20394;-72
2023/06/12 09:01:53;;;;;;;4.78;1.90;;;26.10;48.10;;;;;;5045433;28;20225;-72
2023/06/12 09:05:07;;;;;;;2.85;1.88;;;26.30;48.80;;;;;;5024340;28;20296;-72
2023/06/12 09:08:00;;;;;;;5.90;2.10;;;26.10;49.10;;;;;;5010945;28;20229;-72
2023/06/12 09:10:50;;;;;;;7.70;2.35;;;27.10;49.00;;;;;;5024928;28;20229;-72
2023/06/12 09:13:43;;;;;;;4.55;2.13;;;26.70;48.50;;;;;;5025986;28;20217;-72
2023/06/12 09:16:32;;;;;;;3.97;2.00;;;26.90;48.60;;;;;;5025897;28;20600;-72
2023/06/12 09:19:21;;;;;;;10.73;2.17;;;27.20;48.30;;;;;;5011005;28;20229;-72
2023/06/12 09:22:11;;;;;;;7.68;2.20;;;27.10;47.00;;;;;;5025277;28;20273;-73
2023/06/12 09:25:06;;;;;;;7.50;2.10;;;28.20;47.80;;;;;;5024796;28;20356;-72
2023/06/12 09:27:55;;;;;;;3.83;2.22;;;27.30;46.00;;;;;;5005517;28;20780;-72
2023/06/12 09:30:47;;;;;;;2.60;1.80;;;27.30;46.90;;;;;;5017872;28;20238;-72
2023/06/12 09:33:39;;;;;;;5.72;1.88;;;27.70;47.40;;;;;;5017973;28;20271;-73
2023/06/12 09:36:30;;;;;;;6.63;2.25;;;27.70;47.00;;;;;;5021711;28;20320;-74
2023/06/12 09:39:32;;;;;;;26.77;3.35;;;28.50;46.50;;;;;;5026110;28;20779;-72
2023/06/12 09:42:22;;;;;;;2.75;1.92;;;28.80;44.70;;;;;;5039490;28;20596;-71
2023/06/12 09:45:12;;;;;;;4.38;2.08;;;29.40;44.80;;;;;;5024832;28;20312;-70
2023/06/12 09:48:04;;;;;;;4.57;1.90;;;29.20;45.00;;;;;;5024044;28;20308;-71
2023/06/12 09:50:53;;;;;;;7.32;2.08;;;28.70;45.10;;;;;;5024902;28;20987;-71
2023/06/12 09:53:44;;;;;;;3.80;2.00;;;30.30;45.50;;;;;;5041913;28;20239;-71
2023/06/12 09:56:34;;;;;;;7.57;1.80;;;30.70;44.00;;;;;;5046071;28;20243;-73
2023/06/12 09:59:23;;;;;;;8.63;2.28;;;32.40;45.40;;;;;;5041877;28;20247;-72
2023/06/12 10:02:15;;;;;;;7.82;2.45;;;33.10;41.60;;;;;;5030832;28;20220;-71
2023/06/12 10:05:12;;;;;;;12.32;2.63;;;30.40;41.90;;;;;;5037679;28;20966;-73
2023/06/12 10:08:03;;;;;;;9.73;2.00;;;28.50;45.10;;;;;;5010849;28;20245;-73
2023/06/12 10:10:53;;;;;;;5.55;2.40;;;29.00;44.30;;;;;;5024695;28;20232;-74
2023/06/12 10:13:43;;;;;;;3.40;2.05;;;30.70;44.50;;;;;;5033619;28;20217;-71
2023/06/12 10:16:34;;;;;;;4.55;2.17;;;31.70;42.20;;;;;;5031788;28;20240;-72
2023/06/12 10:19:25;;;;;;;3.10;2.08;;;29.60;43.50;;;;;;5018253;28;20252;-73
2023/06/12 10:22:15;;;;;;;3.88;2.22;;;32.90;43.20;;;;;;5033944;28;20818;-72
2023/06/12 10:25:06;;;;;;;5.53;2.33;;;33.90;42.10;;;;;;5011154;28;20231;-72
2023/06/12 10:27:55;;;;;;;5.72;2.03;;;34.50;40.50;;;;;;5024614;28;20644;-71
2023/06/12 10:31:12;;;;;;;4.40;2.00;;;34.00;40.00;;;;;;5024483;28;20217;-72
2023/06/12 10:34:10;;;;;;;8.48;2.40;;;34.60;39.60;;;;;;5010318;28;20221;-73
2023/06/12 10:36:59;;;;;;;4.30;2.00;;;34.30;38.60;;;;;;5019025;28;20221;-72
2023/06/12 10:40:07;;;;;;;4.78;2.05;;;34.70;39.60;;;;;;5012839;28;20239;-72
2023/06/12 10:43:03;;;;;;;3.15;2.38;;;34.40;39.50;;;;;;5042992;28;20223;-72
2023/06/12 10:45:57;;;;;;;4.40;2.20;;;36.50;38.70;;;;;;5029466;28;20295;-72
2023/06/12 10:48:47;;;;;;;4.40;2.42;;;32.80;39.00;;;;;;5036612;28;20231;-71
2023/06/12 10:51:36;;;;;;;4.63;2.60;;;31.80;39.40;;;;;;5059169;28;20577;-71
2023/06/12 10:54:28;;;;;;;4.85;2.05;;;34.20;40.70;;;;;;5063480;28;20233;-72
2023/06/12 10:57:28;;;;;;;6.13;2.13;;;36.40;37.60;;;;;;5013848;28;20216;-73
2023/06/12 11:00:19;;;;;;;3.03;1.77;;;37.30;36.80;;;;;;5027812;28;20225;-71
2023/06/12 11:03:11;;;;;;;3.55;2.13;;;36.20;38.20;;;;;;5019713;28;20220;-72
2023/06/12 11:06:13;;;;;;;3.03;2.03;;;37.60;38.30;;;;;;5037224;28;20228;-71
2023/06/12 11:09:10;;;;;;;3.80;1.90;;;38.50;37.30;;;;;;5014038;28;20263;-72
2023/06/12 11:12:02;;;;;;;5.35;2.30;;;40.20;35.20;;;;;;5019997;28;20761;-70
2023/06/12 11:14:52;;;;;;;7.97;1.92;;;37.80;36.50;;;;;;5027119;28;20841;-72
2023/06/12 11:17:41;;;;;;;6.22;2.17;;;38.30;36.70;;;;;;5026935;28;20212;-71
2023/06/12 11:20:33;;;;;;;4.00;2.00;;;37.90;33.50;;;;;;5042697;28;20221;-72
2023/06/12 11:23:25;;;;;;;4.78;2.17;;;37.10;35.00;;;;;;5021111;28;20693;-72
2023/06/12 11:26:18;;;;;;;4.70;2.60;;;38.70;34.20;;;;;;5013284;28;20229;-71
2023/06/12 11:29:18;;;;;;;6.45;2.10;;;38.30;33.40;;;;;;5007287;28;20231;-72
2023/06/12 11:32:10;;;;;;;2.75;2.00;;;39.80;34.90;;;;;;5015041;28;20240;-71
2023/06/12 11:35:01;;;;;;;3.67;1.95;;;37.90;35.50;;;;;;5035725;28;20339;-72
2023/06/12 11:37:52;;;;;;;4.82;2.25;;;38.60;34.90;;;;;;5035150;28;20731;-71
2023/06/12 11:40:45;;;;;;;5.43;2.28;;;37.40;34.50;;;;;;5034766;28;20730;-72
2023/06/12 11:43:36;;;;;;;6.63;2.03;;;37.70;35.60;;;;;;5021586;28;20220;-72
2023/06/12 11:46:26;;;;;;;5.97;2.22;;;41.50;34.00;;;;;;5009248;28;20222;-71
2023/06/12 11:49:16;;;;;;;3.60;2.13;;;43.30;32.90;;;;;;5019587;28;20407;-69
2023/06/12 11:52:07;;;;;;;5.85;2.30;;;36.00;32.70;;;;;;5032276;28;20225;-71
2023/06/12 11:54:58;;;;;;;6.80;2.45;;;34.40;35.90;;;;;;5041025;28;20224;-71
2023/06/12 11:57:52;;;;;;;4.45;2.10;;;38.50;34.30;;;;;;5020696;28;20274;-71
2023/06/12 12:00:41;;;;;;;5.93;2.22;;;43.10;33.10;;;;;;5010308;28;20733;-70
2023/06/12 12:03:35;;;;;;;2.28;1.92;;;37.00;33.00;;;;;;5023152;28;20217;-72
2023/06/12 12:06:26;;;;;;;7.75;2.60;;;36.40;31.90;;;;;;5002730;28;20712;-71
2023/06/12 12:09:16;;;;;;;7.45;2.38;;;38.60;33.60;;;;;;5017634;28;20282;-72
2023/06/12 12:12:10;;;;;;;5.28;2.38;;;34.10;34.60;;;;;;5022235;28;20224;-73
2023/06/12 12:15:03;;;;;;;7.30;2.33;;;32.90;36.50;;;;;;5000725;28;20803;-72
2023/06/12 12:17:53;;;;;;;4.60;2.13;;;37.60;34.90;;;;;;5010907;28;20306;-73
2023/06/12 12:20:42;;;;;;;6.05;2.30;;;41.20;33.70;;;;;;5018514;28;20236;-71
2023/06/12 12:23:33;;;;;;;18.83;2.20;;;42.80;30.80;;;;;;5031018;28;20225;-72
2023/06/12 12:26:22;;;;;;;3.58;2.10;;;45.20;30.90;;;;;;5018099;28;20731;-72
2023/06/12 12:29:11;;;;;;;2.88;2.10;;;45.40;29.80;;;;;;5021691;28;20213;-74
2023/06/12 12:32:00;;;;;;;6.28;2.22;;;37.70;30.00;;;;;;5023416;28;20236;-71
2023/06/12 12:34:49;;;;;;;6.32;2.38;;;34.10;34.90;;;;;;5007209;28;20486;-72
2023/06/12 12:37:38;;;;;;;5.30;2.10;;;41.30;32.90;;;;;;5026645;28;20305;-71
2023/06/12 12:40:29;;;;;;;7.82;2.65;;;33.30;34.50;;;;;;5025932;28;20221;-72
2023/06/12 12:43:17;;;;;;;5.63;2.25;;;30.60;37.20;;;;;;5002455;28;21123;-72
2023/06/12 12:46:06;;;;;;;7.22;2.50;;;29.70;39.30;;;;;;5021401;28;20236;-72
2023/06/12 12:48:55;;;;;;;4.03;2.28;;;32.60;38.00;;;;;;5015819;28;20344;-72
2023/06/12 12:51:44;;;;;;;7.30;2.40;;;37.00;35.00;;;;;;5035370;28;20354;-70
2023/06/12 12:54:33;;;;;;;6.82;2.10;;;37.80;33.10;;;;;;5023809;28;20311;-71
2023/06/12 12:57:24;;;;;;;5.78;2.67;;;31.20;35.40;;;;;;5023695;28;20232;-70
2023/06/12 13:00:17;;;;;;;6.15;2.25;;;28.80;38.80;;;;;;5020243;28;20311;-71
2023/06/12 13:03:07;;;;;;;6.72;2.30;;;28.10;39.90;;;;;;5023591;28;20601;-71
2023/06/12 13:05:56;;;;;;;3.50;2.55;;;26.80;40.50;;;;;;5007213;28;20221;-71
2023/06/12 13:08:45;;;;;;;3.50;2.30;;;25.80;42.30;;;;;;5029096;28;20236;-71
2023/06/12 13:11:34;;;;;;;8.02;2.65;;;25.80;42.90;;;;;;5030969;28;20223;-71
2023/06/12 13:14:24;;;;;;;4.10;2.40;;;24.70;43.40;;;;;;5011551;28;20723;-70
2023/06/12 13:17:14;;;;;;;3.83;3.00;;;24.90;44.00;;;;;;5025773;28;20287;-71
2023/06/12 13:20:04;;;;;;;6.22;2.70;;;25.10;44.20;;;;;;5026310;28;20225;-69
2023/06/12 13:23:00;;;;;;;8.68;2.60;;;24.90;45.00;;;;;;5030980;28;20236;-72
2023/06/12 13:25:49;;;;;;;5.30;2.47;;;25.10;44.60;;;;;;5015696;28;20233;-72
2023/06/12 13:28:38;;;;;;;8.55;2.63;;;25.00;44.80;;;;;;5025562;28;20375;-71
2023/06/12 13:31:28;;;;;;;7.22;2.60;;;24.50;45.10;;;;;;5021589;28;20320;-71
2023/06/12 13:34:17;;;;;;;4.22;2.50;;;24.20;45.50;;;;;;5016035;28;20263;-71
2023/06/12 13:37:06;;;;;;;4.68;2.15;;;24.20;45.70;;;;;;5012622;28;20217;-72
2023/06/12 13:39:55;;;;;;;6.97;2.50;;;24.60;45.80;;;;;;5046203;28;20228;-71
2023/06/12 13:42:44;;;;;;;7.43;2.40;;;24.40;45.40;;;;;;5022578;28;20222;-72
2023/06/12 13:45:34;;;;;;;9.68;2.92;;;23.40;46.40;;;;;;5024949;28;20221;-71
2023/06/12 13:48:25;;;;;;;9.88;2.15;;;23.30;47.40;;;;;;5029337;28;20222;-71
2023/06/12 13:51:14;;;;;;;2.50;2.00;;;23.40;47.30;;;;;;5013968;28;20882;-70
2023/06/12 13:54:06;;;;;;;4.85;2.53;;;23.20;46.10;;;;;;5019584;28;20770;-71
2023/06/12 13:56:55;;;;;;;8.82;2.45;;;23.50;46.40;;;;;;5013142;28;20230;-71
2023/06/12 13:59:44;;;;;;;4.93;2.47;;;23.70;46.60;;;;;;5012127;28;20744;-71
2023/06/12 14:02:36;;;;;;;11.65;2.60;;;23.60;46.70;;;;;;5030027;28;20264;-72
2023/06/12 14:05:27;;;;;;;3.05;2.45;;;23.90;48.10;;;;;;5033489;28;20749;-71
2023/06/12 14:08:15;;;;;;;4.10;2.25;;;23.50;47.00;;;;;;5026696;28;20295;-71
2023/06/12 14:11:05;;;;;;;7.28;2.00;;;23.50;47.60;;;;;;5009265;28;20252;-71
2023/06/12 14:13:56;;;;;;;3.03;2.20;;;23.20;46.30;;;;;;5016908;28;20238;-72
2023/06/12 14:16:45;;;;;;;9.70;2.88;;;23.00;46.40;;;;;;5029517;28;20229;-71
2023/06/12 14:19:34;;;;;;;6.57;2.55;;;23.20;46.90;;;;;;5022710;28;20244;-72
2023/06/12 14:22:24;;;;;;;2.72;2.10;;;23.00;47.00;;;;;;5044372;28;20252;-71
2023/06/12 14:25:13;;;;;;;3.85;2.40;;;23.20;47.10;;;;;;5042459;28;20761;-72
2023/06/12 14:28:03;;;;;;;4.43;2.08;;;23.50;47.10;;;;;;5001938;28;20807;-71
2023/06/12 14:30:52;;;;;;;3.00;2.22;;;23.30;47.00;;;;;;5002655;28;20230;-71
2023/06/12 14:33:41;;;;;;;13.30;2.80;;;23.10;47.00;;;;;;5014782;28;20217;-72
2023/06/12 14:36:34;;;;;;;8.05;2.60;;;23.20;47.60;;;;;;5023526;28;20607;-70
2023/06/12 14:39:24;;;;;;;5.43;2.20;;;23.30;47.10;;;;;;5025923;28;20240;-71
2023/06/12 14:42:14;;;;;;;7.13;2.45;;;23.20;47.30;;;;;;5014795;28;20233;-72
2023/06/12 14:45:06;;;;;;;4.78;2.40;;;23.30;47.30;;;;;;5021541;28;20232;-74
2023/06/12 14:47:55;;;;;;;8.75;2.40;;;23.50;47.60;;;;;;5021584;28;20889;-73